BME weather

Broome International Airport
Broome, Western Australia, Australia

Public forecast

Using degrees Celsius for public forecast. Weather courtesy of forecast.io.

Current aviation weather report (METAR) for Broome International Airport

Retrieved 2019/12/14 12:30 UTC (13 minutes ago):

YBRM 141230Z AUTO 01005KT 340V050 9999 // NCD 28/22 Q1009 RF000/0000

Aviation forecast (TAF) for Broome International Airport

Retrieved 2019/12/14 12:36 UTC (7 minutes ago):

TAF YBRM 141113Z 1412/1512 22008KT 9999 DU HZ NSC FM141800 VRB03KT CAVOK FM150200 27012KT CAVOK